sensor_id;sensor_type;location;lat;lon;timestamp;P1;durP1;ratioP1;P2;durP2;ratioP2
56911;SDS011;42800;53.928;27.662;2022-12-29T00:01:55;16.17;;;9.60;;
56911;SDS011;42800;53.928;27.662;2022-12-29T00:04:22;18.30;;;8.55;;
56911;SDS011;42800;53.928;27.662;2022-12-29T00:06:48;16.98;;;9.35;;
56911;SDS011;42800;53.928;27.662;2022-12-29T00:09:17;18.70;;;8.82;;
56911;SDS011;42800;53.928;27.662;2022-12-29T00:11:44;22.33;;;9.63;;
56911;SDS011;42800;53.928;27.662;2022-12-29T00:14:11;14.90;;;8.88;;
56911;SDS011;42800;53.928;27.662;2022-12-29T00:16:56;15.90;;;8.85;;
56911;SDS011;42800;53.928;27.662;2022-12-29T00:19:23;16.25;;;8.55;;
56911;SDS011;42800;53.928;27.662;2022-12-29T00:24:52;15.07;;;8.65;;
56911;SDS011;42800;53.928;27.662;2022-12-29T00:27:37;19.58;;;9.40;;
56911;SDS011;42800;53.928;27.662;2022-12-29T00:30:22;22.67;;;9.57;;
56911;SDS011;42800;53.928;27.662;2022-12-29T00:33:08;20.67;;;10.25;;
56911;SDS011;42800;53.928;27.662;2022-12-29T00:35:55;23.55;;;10.57;;
56911;SDS011;42800;53.928;27.662;2022-12-29T00:38:24;20.13;;;9.82;;
56911;SDS011;42800;53.928;27.662;2022-12-29T00:41:09;24.83;;;10.75;;
56911;SDS011;42800;53.928;27.662;2022-12-29T00:43:58;25.48;;;10.70;;
56911;SDS011;42800;53.928;27.662;2022-12-29T00:46:36;22.17;;;9.82;;
56911;SDS011;42800;53.928;27.662;2022-12-29T00:49:03;21.42;;;9.93;;
56911;SDS011;42800;53.928;27.662;2022-12-29T00:51:48;22.02;;;9.57;;
56911;SDS011;42800;53.928;27.662;2022-12-29T00:54:15;15.70;;;8.98;;
56911;SDS011;42800;53.928;27.662;2022-12-29T00:56:41;17.35;;;8.32;;
56911;SDS011;42800;53.928;27.662;2022-12-29T00:59:08;24.58;;;9.38;;
56911;SDS011;42800;53.928;27.662;2022-12-29T01:01:37;19.15;;;9.18;;
56911;SDS011;42800;53.928;27.662;2022-12-29T01:04:03;22.08;;;10.55;;
56911;SDS011;42800;53.928;27.662;2022-12-29T01:06:30;19.83;;;9.48;;
56911;SDS011;42800;53.928;27.662;2022-12-29T01:08:57;19.27;;;9.48;;
56911;SDS011;42800;53.928;27.662;2022-12-29T01:14:07;17.05;;;9.50;;
56911;SDS011;42800;53.928;27.662;2022-12-29T01:16:34;19.88;;;9.57;;
56911;SDS011;42800;53.928;27.662;2022-12-29T01:19:02;16.65;;;9.35;;
56911;SDS011;42800;53.928;27.662;2022-12-29T01:21:28;22.60;;;9.13;;
56911;SDS011;42800;53.928;27.662;2022-12-29T01:23:55;18.35;;;9.38;;
56911;SDS011;42800;53.928;27.662;2022-12-29T01:26:21;20.88;;;10.23;;
56911;SDS011;42800;53.928;27.662;2022-12-29T01:28:47;15.48;;;9.52;;
56911;SDS011;42800;53.928;27.662;2022-12-29T01:31:14;17.38;;;9.50;;
56911;SDS011;42800;53.928;27.662;2022-12-29T01:33:40;17.60;;;9.35;;
56911;SDS011;42800;53.928;27.662;2022-12-29T01:36:08;14.77;;;9.00;;
56911;SDS011;42800;53.928;27.662;2022-12-29T01:38:37;17.80;;;9.75;;
56911;SDS011;42800;53.928;27.662;2022-12-29T01:41:05;13.85;;;8.55;;
56911;SDS011;42800;53.928;27.662;2022-12-29T01:43:38;15.57;;;9.70;;
56911;SDS011;42800;53.928;27.662;2022-12-29T01:46:07;19.17;;;9.90;;
56911;SDS011;42800;53.928;27.662;2022-12-29T01:48:41;18.27;;;10.65;;
56911;SDS011;42800;53.928;27.662;2022-12-29T01:51:09;18.20;;;10.15;;
56911;SDS011;42800;53.928;27.662;2022-12-29T01:53:36;18.42;;;10.57;;
56911;SDS011;42800;53.928;27.662;2022-12-29T01:56:03;17.33;;;10.52;;
56911;SDS011;42800;53.928;27.662;2022-12-29T01:58:34;20.33;;;10.55;;
56911;SDS011;42800;53.928;27.662;2022-12-29T02:01:05;23.35;;;9.98;;
56911;SDS011;42800;53.928;27.662;2022-12-29T02:03:32;18.88;;;11.13;;
56911;SDS011;42800;53.928;27.662;2022-12-29T02:06:01;16.73;;;9.85;;
56911;SDS011;42800;53.928;27.662;2022-12-29T02:08:34;19.25;;;11.13;;
56911;SDS011;42800;53.928;27.662;2022-12-29T02:11:01;19.88;;;10.65;;
56911;SDS011;42800;53.928;27.662;2022-12-29T02:13:28;19.55;;;10.73;;
56911;SDS011;42800;53.928;27.662;2022-12-29T02:15:56;24.05;;;10.82;;
56911;SDS011;42800;53.928;27.662;2022-12-29T02:18:32;18.30;;;11.35;;
56911;SDS011;42800;53.928;27.662;2022-12-29T02:27:29;28.58;;;10.95;;
56911;SDS011;42800;53.928;27.662;2022-12-29T02:30:07;20.13;;;10.82;;
56911;SDS011;42800;53.928;27.662;2022-12-29T02:32:45;18.05;;;10.60;;
56911;SDS011;42800;53.928;27.662;2022-12-29T02:35:21;21.25;;;11.38;;
56911;SDS011;42800;53.928;27.662;2022-12-29T02:37:55;19.90;;;10.30;;
56911;SDS011;42800;53.928;27.662;2022-12-29T02:40:31;17.05;;;9.98;;
56911;SDS011;42800;53.928;27.662;2022-12-29T02:43:04;20.40;;;10.80;;
56911;SDS011;42800;53.928;27.662;2022-12-29T02:45:45;19.83;;;11.35;;
56911;SDS011;42800;53.928;27.662;2022-12-29T02:48:18;21.25;;;10.85;;
56911;SDS011;42800;53.928;27.662;2022-12-29T02:50:51;18.75;;;10.48;;
56911;SDS011;42800;53.928;27.662;2022-12-29T02:53:23;21.17;;;12.15;;
56911;SDS011;42800;53.928;27.662;2022-12-29T02:56:05;19.77;;;10.60;;
56911;SDS011;42800;53.928;27.662;2022-12-29T02:58:31;19.52;;;11.70;;
56911;SDS011;42800;53.928;27.662;2022-12-29T03:01:02;19.75;;;10.65;;
56911;SDS011;42800;53.928;27.662;2022-12-29T03:03:41;20.23;;;11.40;;
56911;SDS011;42800;53.928;27.662;2022-12-29T03:06:22;20.38;;;11.43;;
56911;SDS011;42800;53.928;27.662;2022-12-29T03:09:00;22.77;;;10.25;;
56911;SDS011;42800;53.928;27.662;2022-12-29T03:11:33;21.17;;;11.45;;
56911;SDS011;42800;53.928;27.662;2022-12-29T03:14:32;19.88;;;10.85;;
56911;SDS011;42800;53.928;27.662;2022-12-29T03:17:24;24.17;;;11.57;;
56911;SDS011;42800;53.928;27.662;2022-12-29T03:19:55;22.58;;;12.48;;
56911;SDS011;42800;53.928;27.662;2022-12-29T03:22:28;19.98;;;11.55;;
56911;SDS011;42800;53.928;27.662;2022-12-29T03:24:57;23.30;;;12.52;;
56911;SDS011;42800;53.928;27.662;2022-12-29T03:27:28;26.73;;;13.45;;
56911;SDS011;42800;53.928;27.662;2022-12-29T03:29:58;29.17;;;13.43;;
56911;SDS011;42800;53.928;27.662;2022-12-29T03:32:28;23.33;;;12.38;;
56911;SDS011;42800;53.928;27.662;2022-12-29T03:34:58;21.10;;;12.40;;
56911;SDS011;42800;53.928;27.662;2022-12-29T03:37:27;26.35;;;14.80;;
56911;SDS011;42800;53.928;27.662;2022-12-29T03:39:57;22.10;;;12.63;;
56911;SDS011;42800;53.928;27.662;2022-12-29T03:42:24;23.92;;;13.23;;
56911;SDS011;42800;53.928;27.662;2022-12-29T03:44:54;23.10;;;13.73;;
56911;SDS011;42800;53.928;27.662;2022-12-29T03:47:22;27.40;;;13.65;;
56911;SDS011;42800;53.928;27.662;2022-12-29T03:49:49;27.17;;;13.65;;
56911;SDS011;42800;53.928;27.662;2022-12-29T03:52:17;32.72;;;14.85;;
56911;SDS011;42800;53.928;27.662;2022-12-29T03:54:43;24.55;;;14.27;;
56911;SDS011;42800;53.928;27.662;2022-12-29T03:57:10;29.45;;;14.43;;
56911;SDS011;42800;53.928;27.662;2022-12-29T03:59:36;29.95;;;13.68;;
56911;SDS011;42800;53.928;27.662;2022-12-29T04:02:03;27.70;;;14.77;;
56911;SDS011;42800;53.928;27.662;2022-12-29T04:04:29;27.17;;;13.80;;
56911;SDS011;42800;53.928;27.662;2022-12-29T04:06:55;28.83;;;14.95;;
56911;SDS011;42800;53.928;27.662;2022-12-29T04:09:22;29.20;;;14.45;;
56911;SDS011;42800;53.928;27.662;2022-12-29T04:11:48;25.42;;;14.15;;
56911;SDS011;42800;53.928;27.662;2022-12-29T04:14:14;28.45;;;15.02;;
56911;SDS011;42800;53.928;27.662;2022-12-29T04:16:41;34.15;;;15.40;;
56911;SDS011;42800;53.928;27.662;2022-12-29T04:19:07;32.58;;;16.25;;
56911;SDS011;42800;53.928;27.662;2022-12-29T04:21:33;40.92;;;18.33;;
56911;SDS011;42800;53.928;27.662;2022-12-29T04:24:00;38.53;;;16.70;;
56911;SDS011;42800;53.928;27.662;2022-12-29T04:26:27;34.53;;;16.77;;
56911;SDS011;42800;53.928;27.662;2022-12-29T04:28:53;38.85;;;16.98;;
56911;SDS011;42800;53.928;27.662;2022-12-29T04:31:19;30.50;;;15.77;;
56911;SDS011;42800;53.928;27.662;2022-12-29T04:33:46;28.02;;;15.07;;
56911;SDS011;42800;53.928;27.662;2022-12-29T04:36:12;38.47;;;16.85;;
56911;SDS011;42800;53.928;27.662;2022-12-29T04:38:38;38.95;;;16.15;;
56911;SDS011;42800;53.928;27.662;2022-12-29T04:41:04;37.42;;;17.13;;
56911;SDS011;42800;53.928;27.662;2022-12-29T04:43:31;27.48;;;15.48;;
56911;SDS011;42800;53.928;27.662;2022-12-29T04:45:58;26.30;;;14.82;;
56911;SDS011;42800;53.928;27.662;2022-12-29T04:48:24;26.58;;;15.40;;
56911;SDS011;42800;53.928;27.662;2022-12-29T04:50:50;33.92;;;16.92;;
56911;SDS011;42800;53.928;27.662;2022-12-29T04:53:16;31.35;;;15.25;;
56911;SDS011;42800;53.928;27.662;2022-12-29T04:55:43;33.25;;;15.60;;
56911;SDS011;42800;53.928;27.662;2022-12-29T04:58:09;31.23;;;15.70;;
56911;SDS011;42800;53.928;27.662;2022-12-29T05:00:36;36.35;;;17.33;;
56911;SDS011;42800;53.928;27.662;2022-12-29T05:03:03;31.83;;;15.75;;
56911;SDS011;42800;53.928;27.662;2022-12-29T05:05:29;31.27;;;15.68;;
56911;SDS011;42800;53.928;27.662;2022-12-29T05:07:55;32.95;;;16.25;;
56911;SDS011;42800;53.928;27.662;2022-12-29T05:10:21;31.52;;;16.25;;
56911;SDS011;42800;53.928;27.662;2022-12-29T05:12:48;29.30;;;15.27;;
56911;SDS011;42800;53.928;27.662;2022-12-29T05:15:14;32.17;;;14.85;;
56911;SDS011;42800;53.928;27.662;2022-12-29T05:17:41;33.70;;;15.43;;
56911;SDS011;42800;53.928;27.662;2022-12-29T05:20:07;29.23;;;15.20;;
56911;SDS011;42800;53.928;27.662;2022-12-29T05:22:34;28.63;;;15.27;;
56911;SDS011;42800;53.928;27.662;2022-12-29T05:25:01;28.20;;;14.02;;
56911;SDS011;42800;53.928;27.662;2022-12-29T05:27:28;26.60;;;14.70;;
56911;SDS011;42800;53.928;27.662;2022-12-29T05:29:55;31.23;;;15.20;;
56911;SDS011;42800;53.928;27.662;2022-12-29T05:32:21;28.73;;;14.77;;
56911;SDS011;42800;53.928;27.662;2022-12-29T05:34:48;38.67;;;15.18;;
56911;SDS011;42800;53.928;27.662;2022-12-29T05:37:14;30.70;;;14.13;;
56911;SDS011;42800;53.928;27.662;2022-12-29T05:39:41;34.95;;;15.38;;
56911;SDS011;42800;53.928;27.662;2022-12-29T05:42:07;29.10;;;15.05;;
56911;SDS011;42800;53.928;27.662;2022-12-29T05:44:33;33.20;;;16.55;;
56911;SDS011;42800;53.928;27.662;2022-12-29T05:46:59;38.13;;;17.45;;
56911;SDS011;42800;53.928;27.662;2022-12-29T05:49:26;29.80;;;15.32;;
56911;SDS011;42800;53.928;27.662;2022-12-29T05:51:52;29.95;;;15.23;;
56911;SDS011;42800;53.928;27.662;2022-12-29T05:54:19;32.17;;;15.45;;
56911;SDS011;42800;53.928;27.662;2022-12-29T05:56:45;36.25;;;17.05;;
56911;SDS011;42800;53.928;27.662;2022-12-29T05:59:11;39.13;;;17.70;;
56911;SDS011;42800;53.928;27.662;2022-12-29T06:01:37;41.05;;;18.13;;
56911;SDS011;42800;53.928;27.662;2022-12-29T06:04:04;34.88;;;18.50;;
56911;SDS011;42800;53.928;27.662;2022-12-29T06:06:30;37.55;;;18.63;;
56911;SDS011;42800;53.928;27.662;2022-12-29T06:08:57;47.53;;;21.05;;
56911;SDS011;42800;53.928;27.662;2022-12-29T06:11:23;65.28;;;22.02;;
56911;SDS011;42800;53.928;27.662;2022-12-29T06:13:49;46.65;;;19.83;;
56911;SDS011;42800;53.928;27.662;2022-12-29T06:16:15;40.03;;;20.63;;
56911;SDS011;42800;53.928;27.662;2022-12-29T06:18:41;41.53;;;21.33;;
56911;SDS011;42800;53.928;27.662;2022-12-29T06:21:08;41.45;;;19.50;;
56911;SDS011;42800;53.928;27.662;2022-12-29T06:23:34;34.75;;;17.23;;
56911;SDS011;42800;53.928;27.662;2022-12-29T06:26:01;42.88;;;21.25;;
56911;SDS011;42800;53.928;27.662;2022-12-29T06:28:27;33.65;;;16.75;;
56911;SDS011;42800;53.928;27.662;2022-12-29T06:30:53;37.90;;;15.82;;
56911;SDS011;42800;53.928;27.662;2022-12-29T06:33:19;32.58;;;16.70;;
56911;SDS011;42800;53.928;27.662;2022-12-29T06:35:46;39.63;;;18.33;;
56911;SDS011;42800;53.928;27.662;2022-12-29T06:38:12;31.40;;;16.65;;
56911;SDS011;42800;53.928;27.662;2022-12-29T06:40:38;26.90;;;16.40;;
56911;SDS011;42800;53.928;27.662;2022-12-29T06:43:07;32.78;;;17.00;;
56911;SDS011;42800;53.928;27.662;2022-12-29T06:45:33;30.75;;;16.98;;
56911;SDS011;42800;53.928;27.662;2022-12-29T06:47:59;33.85;;;16.63;;
56911;SDS011;42800;53.928;27.662;2022-12-29T06:50:25;39.13;;;16.42;;
56911;SDS011;42800;53.928;27.662;2022-12-29T06:52:51;30.75;;;15.35;;
56911;SDS011;42800;53.928;27.662;2022-12-29T06:55:18;31.08;;;16.75;;
56911;SDS011;42800;53.928;27.662;2022-12-29T06:57:44;38.13;;;17.25;;
56911;SDS011;42800;53.928;27.662;2022-12-29T07:00:12;32.03;;;16.73;;
56911;SDS011;42800;53.928;27.662;2022-12-29T07:02:38;39.17;;;17.65;;
56911;SDS011;42800;53.928;27.662;2022-12-29T07:05:05;36.92;;;16.80;;
56911;SDS011;42800;53.928;27.662;2022-12-29T07:07:32;32.50;;;15.60;;
56911;SDS011;42800;53.928;27.662;2022-12-29T07:09:58;32.75;;;16.30;;
56911;SDS011;42800;53.928;27.662;2022-12-29T07:12:25;38.70;;;17.05;;
56911;SDS011;42800;53.928;27.662;2022-12-29T07:14:51;34.90;;;18.33;;
56911;SDS011;42800;53.928;27.662;2022-12-29T07:17:18;35.03;;;16.90;;
56911;SDS011;42800;53.928;27.662;2022-12-29T07:19:44;43.55;;;18.73;;
56911;SDS011;42800;53.928;27.662;2022-12-29T07:22:10;46.47;;;19.00;;
56911;SDS011;42800;53.928;27.662;2022-12-29T07:24:37;47.22;;;19.95;;
56911;SDS011;42800;53.928;27.662;2022-12-29T07:27:03;50.20;;;19.08;;
56911;SDS011;42800;53.928;27.662;2022-12-29T07:29:30;36.20;;;19.00;;
56911;SDS011;42800;53.928;27.662;2022-12-29T07:31:56;42.30;;;19.75;;
56911;SDS011;42800;53.928;27.662;2022-12-29T07:34:23;37.95;;;17.60;;
56911;SDS011;42800;53.928;27.662;2022-12-29T07:36:49;42.28;;;22.10;;
56911;SDS011;42800;53.928;27.662;2022-12-29T07:39:16;46.15;;;20.50;;
56911;SDS011;42800;53.928;27.662;2022-12-29T07:41:42;35.95;;;19.27;;
56911;SDS011;42800;53.928;27.662;2022-12-29T07:44:08;39.58;;;17.80;;
56911;SDS011;42800;53.928;27.662;2022-12-29T07:46:34;39.13;;;18.42;;
56911;SDS011;42800;53.928;27.662;2022-12-29T07:49:00;36.67;;;17.50;;
56911;SDS011;42800;53.928;27.662;2022-12-29T07:51:27;35.42;;;14.65;;
56911;SDS011;42800;53.928;27.662;2022-12-29T07:53:53;37.60;;;17.17;;
56911;SDS011;42800;53.928;27.662;2022-12-29T07:56:20;33.47;;;17.27;;
56911;SDS011;42800;53.928;27.662;2022-12-29T07:58:46;32.85;;;16.83;;
56911;SDS011;42800;53.928;27.662;2022-12-29T08:01:12;34.13;;;16.33;;
56911;SDS011;42800;53.928;27.662;2022-12-29T08:03:38;35.60;;;15.68;;
56911;SDS011;42800;53.928;27.662;2022-12-29T08:06:08;29.70;;;14.70;;
56911;SDS011;42800;53.928;27.662;2022-12-29T08:08:35;35.47;;;15.05;;
56911;SDS011;42800;53.928;27.662;2022-12-29T08:11:02;32.75;;;16.33;;
56911;SDS011;42800;53.928;27.662;2022-12-29T08:13:28;32.72;;;15.98;;
56911;SDS011;42800;53.928;27.662;2022-12-29T08:15:54;29.08;;;16.08;;
56911;SDS011;42800;53.928;27.662;2022-12-29T08:18:22;31.80;;;16.15;;
56911;SDS011;42800;53.928;27.662;2022-12-29T08:20:49;34.60;;;15.32;;
56911;SDS011;42800;53.928;27.662;2022-12-29T08:23:15;43.55;;;16.23;;
56911;SDS011;42800;53.928;27.662;2022-12-29T08:25:42;42.38;;;17.25;;
56911;SDS011;42800;53.928;27.662;2022-12-29T08:28:08;35.70;;;17.08;;
56911;SDS011;42800;53.928;27.662;2022-12-29T08:30:35;40.53;;;16.42;;
56911;SDS011;42800;53.928;27.662;2022-12-29T08:33:01;31.85;;;16.90;;
56911;SDS011;42800;53.928;27.662;2022-12-29T08:35:28;41.92;;;16.83;;
56911;SDS011;42800;53.928;27.662;2022-12-29T08:37:54;33.58;;;16.42;;
56911;SDS011;42800;53.928;27.662;2022-12-29T08:40:20;39.08;;;15.85;;
56911;SDS011;42800;53.928;27.662;2022-12-29T08:42:47;35.63;;;18.17;;
56911;SDS011;42800;53.928;27.662;2022-12-29T08:45:13;37.33;;;15.98;;
56911;SDS011;42800;53.928;27.662;2022-12-29T08:47:40;32.95;;;15.32;;
56911;SDS011;42800;53.928;27.662;2022-12-29T08:50:06;40.17;;;15.48;;
56911;SDS011;42800;53.928;27.662;2022-12-29T08:52:33;34.10;;;15.23;;
56911;SDS011;42800;53.928;27.662;2022-12-29T08:54:59;33.60;;;15.57;;
56911;SDS011;42800;53.928;27.662;2022-12-29T08:57:25;37.83;;;16.55;;
56911;SDS011;42800;53.928;27.662;2022-12-29T08:59:52;34.03;;;16.45;;
56911;SDS011;42800;53.928;27.662;2022-12-29T09:02:18;33.17;;;16.45;;
56911;SDS011;42800;53.928;27.662;2022-12-29T09:04:44;37.70;;;15.68;;
56911;SDS011;42800;53.928;27.662;2022-12-29T09:07:11;33.25;;;16.85;;
56911;SDS011;42800;53.928;27.662;2022-12-29T09:09:37;41.22;;;16.80;;
56911;SDS011;42800;53.928;27.662;2022-12-29T09:12:03;35.78;;;16.70;;
56911;SDS011;42800;53.928;27.662;2022-12-29T09:14:30;37.80;;;16.33;;
56911;SDS011;42800;53.928;27.662;2022-12-29T09:16:57;30.85;;;16.60;;
56911;SDS011;42800;53.928;27.662;2022-12-29T09:19:41;41.42;;;16.25;;
56911;SDS011;42800;53.928;27.662;2022-12-29T09:22:08;29.83;;;16.15;;
56911;SDS011;42800;53.928;27.662;2022-12-29T09:24:34;31.45;;;16.20;;
56911;SDS011;42800;53.928;27.662;2022-12-29T09:27:00;34.25;;;16.05;;
56911;SDS011;42800;53.928;27.662;2022-12-29T09:29:27;39.42;;;14.88;;
56911;SDS011;42800;53.928;27.662;2022-12-29T09:31:53;37.25;;;17.08;;
56911;SDS011;42800;53.928;27.662;2022-12-29T09:34:20;23.60;;;14.13;;
56911;SDS011;42800;53.928;27.662;2022-12-29T09:36:46;25.13;;;14.05;;
56911;SDS011;42800;53.928;27.662;2022-12-29T09:39:12;23.63;;;13.25;;
56911;SDS011;42800;53.928;27.662;2022-12-29T09:41:39;25.23;;;13.15;;
56911;SDS011;42800;53.928;27.662;2022-12-29T09:44:12;30.70;;;13.65;;
56911;SDS011;42800;53.928;27.662;2022-12-29T09:49:17;27.88;;;13.77;;
56911;SDS011;42800;53.928;27.662;2022-12-29T09:51:52;28.08;;;15.00;;
56911;SDS011;42800;53.928;27.662;2022-12-29T09:54:21;26.67;;;13.52;;
56911;SDS011;42800;53.928;27.662;2022-12-29T09:56:52;26.92;;;14.57;;
56911;SDS011;42800;53.928;27.662;2022-12-29T09:59:19;33.00;;;15.70;;
56911;SDS011;42800;53.928;27.662;2022-12-29T10:01:51;28.40;;;13.35;;
56911;SDS011;42800;53.928;27.662;2022-12-29T10:04:26;28.05;;;14.57;;
56911;SDS011;42800;53.928;27.662;2022-12-29T10:06:54;34.45;;;15.60;;
56911;SDS011;42800;53.928;27.662;2022-12-29T10:09:24;33.58;;;15.18;;
56911;SDS011;42800;53.928;27.662;2022-12-29T10:12:00;25.87;;;14.00;;
56911;SDS011;42800;53.928;27.662;2022-12-29T10:14:41;31.23;;;15.23;;
56911;SDS011;42800;53.928;27.662;2022-12-29T10:17:23;31.73;;;15.52;;
56911;SDS011;42800;53.928;27.662;2022-12-29T10:23:01;30.17;;;14.77;;
56911;SDS011;42800;53.928;27.662;2022-12-29T10:25:41;29.73;;;15.07;;
56911;SDS011;42800;53.928;27.662;2022-12-29T10:28:13;26.73;;;13.57;;
56911;SDS011;42800;53.928;27.662;2022-12-29T10:30:45;19.85;;;11.90;;
56911;SDS011;42800;53.928;27.662;2022-12-29T10:33:14;31.42;;;14.15;;
56911;SDS011;42800;53.928;27.662;2022-12-29T10:35:44;25.23;;;14.05;;
56911;SDS011;42800;53.928;27.662;2022-12-29T10:38:15;25.48;;;13.93;;
56911;SDS011;42800;53.928;27.662;2022-12-29T10:40:47;26.52;;;14.05;;
56911;SDS011;42800;53.928;27.662;2022-12-29T10:43:20;32.35;;;14.80;;
56911;SDS011;42800;53.928;27.662;2022-12-29T10:45:50;30.50;;;14.55;;
56911;SDS011;42800;53.928;27.662;2022-12-29T10:48:19;31.50;;;15.02;;
56911;SDS011;42800;53.928;27.662;2022-12-29T10:50:48;31.10;;;16.02;;
56911;SDS011;42800;53.928;27.662;2022-12-29T10:53:17;30.52;;;15.98;;
56911;SDS011;42800;53.928;27.662;2022-12-29T10:55:47;34.58;;;16.20;;
56911;SDS011;42800;53.928;27.662;2022-12-29T10:58:15;27.30;;;15.07;;
56911;SDS011;42800;53.928;27.662;2022-12-29T11:00:41;34.40;;;16.38;;
56911;SDS011;42800;53.928;27.662;2022-12-29T11:03:22;30.23;;;15.30;;
56911;SDS011;42800;53.928;27.662;2022-12-29T11:06:10;27.75;;;15.10;;
56911;SDS011;42800;53.928;27.662;2022-12-29T11:08:41;32.90;;;14.60;;
56911;SDS011;42800;53.928;27.662;2022-12-29T11:11:21;28.58;;;16.15;;
56911;SDS011;42800;53.928;27.662;2022-12-29T11:13:49;27.50;;;13.07;;
56911;SDS011;42800;53.928;27.662;2022-12-29T11:16:26;27.00;;;14.15;;
56911;SDS011;42800;53.928;27.662;2022-12-29T11:18:56;22.65;;;12.48;;
56911;SDS011;42800;53.928;27.662;2022-12-29T11:21:28;26.00;;;13.38;;
56911;SDS011;42800;53.928;27.662;2022-12-29T11:23:59;24.65;;;12.77;;
56911;SDS011;42800;53.928;27.662;2022-12-29T11:26:26;23.20;;;12.38;;
56911;SDS011;42800;53.928;27.662;2022-12-29T11:31:47;27.20;;;11.85;;
56911;SDS011;42800;53.928;27.662;2022-12-29T11:34:18;21.38;;;12.35;;
56911;SDS011;42800;53.928;27.662;2022-12-29T11:36:47;21.58;;;11.55;;
56911;SDS011;42800;53.928;27.662;2022-12-29T11:39:25;27.23;;;12.02;;
56911;SDS011;42800;53.928;27.662;2022-12-29T11:41:54;22.77;;;11.82;;
56911;SDS011;42800;53.928;27.662;2022-12-29T11:44:20;19.05;;;11.18;;
56911;SDS011;42800;53.928;27.662;2022-12-29T11:46:48;23.52;;;12.18;;
56911;SDS011;42800;53.928;27.662;2022-12-29T11:49:18;21.15;;;11.63;;
56911;SDS011;42800;53.928;27.662;2022-12-29T11:51:47;23.95;;;11.60;;
56911;SDS011;42800;53.928;27.662;2022-12-29T11:54:16;23.00;;;11.73;;
56911;SDS011;42800;53.928;27.662;2022-12-29T11:56:45;21.05;;;11.98;;
56911;SDS011;42800;53.928;27.662;2022-12-29T12:05:01;26.10;;;12.75;;
56911;SDS011;42800;53.928;27.662;2022-12-29T12:07:36;22.70;;;12.77;;
56911;SDS011;42800;53.928;27.662;2022-12-29T12:10:05;20.85;;;11.90;;
56911;SDS011;42800;53.928;27.662;2022-12-29T12:12:39;27.48;;;14.77;;
56911;SDS011;42800;53.928;27.662;2022-12-29T12:15:12;30.10;;;14.65;;
56911;SDS011;42800;53.928;27.662;2022-12-29T12:17:47;30.20;;;13.95;;
56911;SDS011;42800;53.928;27.662;2022-12-29T12:20:19;32.25;;;15.52;;
56911;SDS011;42800;53.928;27.662;2022-12-29T12:22:53;38.55;;;17.90;;
56911;SDS011;42800;53.928;27.662;2022-12-29T12:25:29;29.67;;;14.25;;
56911;SDS011;42800;53.928;27.662;2022-12-29T12:28:00;28.20;;;14.55;;
56911;SDS011;42800;53.928;27.662;2022-12-29T12:30:37;29.30;;;14.23;;
56911;SDS011;42800;53.928;27.662;2022-12-29T12:33:10;24.35;;;13.52;;
56911;SDS011;42800;53.928;27.662;2022-12-29T12:35:45;20.38;;;12.63;;
56911;SDS011;42800;53.928;27.662;2022-12-29T12:38:21;25.52;;;12.23;;
56911;SDS011;42800;53.928;27.662;2022-12-29T12:40:58;25.75;;;12.55;;
56911;SDS011;42800;53.928;27.662;2022-12-29T12:43:39;22.05;;;12.77;;
56911;SDS011;42800;53.928;27.662;2022-12-29T12:49:14;26.50;;;12.77;;
56911;SDS011;42800;53.928;27.662;2022-12-29T12:51:50;19.23;;;11.15;;
56911;SDS011;42800;53.928;27.662;2022-12-29T12:54:31;23.77;;;13.48;;
56911;SDS011;42800;53.928;27.662;2022-12-29T12:57:10;21.52;;;13.02;;
56911;SDS011;42800;53.928;27.662;2022-12-29T12:59:46;19.60;;;12.27;;
56911;SDS011;42800;53.928;27.662;2022-12-29T13:05:19;20.67;;;11.80;;
56911;SDS011;42800;53.928;27.662;2022-12-29T13:07:55;18.70;;;11.40;;
56911;SDS011;42800;53.928;27.662;2022-12-29T13:10:41;25.77;;;12.02;;
56911;SDS011;42800;53.928;27.662;2022-12-29T13:13:17;18.63;;;11.05;;
56911;SDS011;42800;53.928;27.662;2022-12-29T13:16:13;20.80;;;12.63;;
56911;SDS011;42800;53.928;27.662;2022-12-29T13:18:46;23.67;;;13.93;;
56911;SDS011;42800;53.928;27.662;2022-12-29T13:21:22;24.60;;;13.32;;
56911;SDS011;42800;53.928;27.662;2022-12-29T13:23:57;27.33;;;13.25;;
56911;SDS011;42800;53.928;27.662;2022-12-29T13:26:30;26.73;;;13.60;;
56911;SDS011;42800;53.928;27.662;2022-12-29T13:29:05;24.13;;;13.77;;
56911;SDS011;42800;53.928;27.662;2022-12-29T13:31:38;25.17;;;12.93;;
56911;SDS011;42800;53.928;27.662;2022-12-29T13:34:14;24.52;;;12.77;;
56911;SDS011;42800;53.928;27.662;2022-12-29T13:36:48;30.23;;;13.50;;
56911;SDS011;42800;53.928;27.662;2022-12-29T13:39:21;26.63;;;13.20;;
56911;SDS011;42800;53.928;27.662;2022-12-29T13:41:52;25.42;;;13.73;;
56911;SDS011;42800;53.928;27.662;2022-12-29T13:44:21;25.63;;;13.82;;
56911;SDS011;42800;53.928;27.662;2022-12-29T13:46:51;24.27;;;12.52;;
56911;SDS011;42800;53.928;27.662;2022-12-29T13:49:20;23.92;;;13.23;;
56911;SDS011;42800;53.928;27.662;2022-12-29T13:51:49;26.92;;;12.85;;
56911;SDS011;42800;53.928;27.662;2022-12-29T13:54:23;27.50;;;12.88;;
56911;SDS011;42800;53.928;27.662;2022-12-29T13:57:03;23.60;;;13.48;;
56911;SDS011;42800;53.928;27.662;2022-12-29T13:59:36;23.90;;;13.73;;
56911;SDS011;42800;53.928;27.662;2022-12-29T14:02:16;28.20;;;13.43;;
56911;SDS011;42800;53.928;27.662;2022-12-29T14:04:56;24.00;;;13.88;;
56911;SDS011;42800;53.928;27.662;2022-12-29T14:07:24;25.23;;;13.65;;
56911;SDS011;42800;53.928;27.662;2022-12-29T14:09:51;26.05;;;14.43;;
56911;SDS011;42800;53.928;27.662;2022-12-29T14:12:20;25.77;;;12.30;;
56911;SDS011;42800;53.928;27.662;2022-12-29T14:15:02;26.30;;;13.90;;
56911;SDS011;42800;53.928;27.662;2022-12-29T14:17:29;21.58;;;12.82;;
56911;SDS011;42800;53.928;27.662;2022-12-29T14:19:55;22.73;;;12.23;;
56911;SDS011;42800;53.928;27.662;2022-12-29T14:22:22;25.35;;;12.48;;
56911;SDS011;42800;53.928;27.662;2022-12-29T14:24:50;26.25;;;13.98;;
56911;SDS011;42800;53.928;27.662;2022-12-29T14:30:47;28.77;;;13.43;;
56911;SDS011;42800;53.928;27.662;2022-12-29T14:33:18;22.25;;;12.73;;
56911;SDS011;42800;53.928;27.662;2022-12-29T14:35:48;24.48;;;12.27;;
56911;SDS011;42800;53.928;27.662;2022-12-29T14:38:18;24.77;;;13.82;;
56911;SDS011;42800;53.928;27.662;2022-12-29T14:40:47;30.58;;;14.35;;
56911;SDS011;42800;53.928;27.662;2022-12-29T14:43:16;27.80;;;14.35;;
56911;SDS011;42800;53.928;27.662;2022-12-29T14:45:52;27.53;;;13.57;;
56911;SDS011;42800;53.928;27.662;2022-12-29T14:48:31;25.85;;;14.63;;
56911;SDS011;42800;53.928;27.662;2022-12-29T14:51:01;23.98;;;12.40;;
56911;SDS011;42800;53.928;27.662;2022-12-29T14:53:43;27.05;;;14.02;;
56911;SDS011;42800;53.928;27.662;2022-12-29T14:56:11;25.10;;;13.45;;
56911;SDS011;42800;53.928;27.662;2022-12-29T14:58:42;20.42;;;12.07;;
56911;SDS011;42800;53.928;27.662;2022-12-29T15:01:22;23.92;;;13.75;;
56911;SDS011;42800;53.928;27.662;2022-12-29T15:04:02;25.88;;;13.90;;